Time;durP1;ratioP1;P1;durP2;ratioP2;P2;SDS_P1;SDS_P2;PMS_P1;PMS_P2;Temp;Humidity;BMP_temperature;BMP_pressure;BME280_temperature;BME280_humidity;BME280_pressure;Samples;Min_cycle;Max_cycle;Signal;HPM_P1;HPM_P2
2022/03/24 00:01:34;;;;;;;224.02;106.03;;;;;;;;;;5104603;27;20111;-67
2022/03/24 00:04:00;;;;;;;185.48;89.35;;;;;;;;;;5104601;27;20024;-68
2022/03/24 00:06:25;;;;;;;150.88;73.28;;;;;;;;;;5106084;27;20023;-65
2022/03/24 00:08:51;;;;;;;149.30;72.07;;;;;;;;;;5107928;27;20094;-66
2022/03/24 00:11:17;;;;;;;164.60;78.35;;;;;;;;;;5105978;27;20357;-65
2022/03/24 00:13:43;;;;;;;220.00;98.10;;;;;;;;;;5106093;27;20094;-67
2022/03/24 00:16:08;;;;;;;157.88;71.65;;;;;;;;;;5102545;27;20099;-72
2022/03/24 00:18:34;;;;;;;152.07;69.60;;;;;;;;;;5104887;27;20027;-67
2022/03/24 00:21:00;;;;;;;144.93;70.45;;;;;;;;;;5107064;27;20024;-67
2022/03/24 00:23:25;;;;;;;183.82;93.47;;;;;;;;;;5103891;27;20034;-66
2022/03/24 00:25:50;;;;;;;202.80;97.90;;;;;;;;;;5103995;27;20019;-67
2022/03/24 00:28:16;;;;;;;122.32;54.35;;;;;;;;;;5105569;27;20027;-65
2022/03/24 00:30:41;;;;;;;114.28;53.42;;;;;;;;;;5104664;27;20334;-66
2022/03/24 00:33:07;;;;;;;94.90;45.63;;;;;;;;;;5104117;27;20102;-67
2022/03/24 00:35:32;;;;;;;107.65;55.40;;;;;;;;;;5107093;27;20027;-73
2022/03/24 00:37:58;;;;;;;162.05;78.25;;;;;;;;;;5105686;27;20027;-67
2022/03/24 00:40:23;;;;;;;168.25;82.43;;;;;;;;;;5104678;27;20035;-70
2022/03/24 00:42:49;;;;;;;187.35;89.82;;;;;;;;;;5105810;27;20540;-66
2022/03/24 00:45:14;;;;;;;170.57;84.75;;;;;;;;;;5105929;27;20057;-66
2022/03/24 00:47:42;;;;;;;189.35;89.53;;;;;;;;;;5103129;27;20015;-66
2022/03/24 00:50:09;;;;;;;188.18;87.70;;;;;;;;;;5103360;27;20102;-67
2022/03/24 00:52:41;;;;;;;144.98;68.40;;;;;;;;;;5102613;27;20015;-66
2022/03/24 00:55:17;;;;;;;106.13;54.00;;;;;;;;;;5102972;27;20063;-66
2022/03/24 00:57:43;;;;;;;92.40;46.70;;;;;;;;;;5103731;27;20043;-71
2022/03/24 01:00:12;;;;;;;102.63;48.17;;;;;;;;;;5104825;27;20035;-65
2022/03/24 01:02:37;;;;;;;92.10;41.90;;;;;;;;;;5103363;27;20039;-65
2022/03/24 01:05:06;;;;;;;101.93;47.90;;;;;;;;;;5104372;27;20441;-65
2022/03/24 01:07:32;;;;;;;116.57;55.45;;;;;;;;;;5104782;27;20061;-65
2022/03/24 01:09:57;;;;;;;116.75;57.67;;;;;;;;;;5102153;27;20081;-67
2022/03/24 01:12:23;;;;;;;115.90;54.17;;;;;;;;;;5102542;27;20021;-66
2022/03/24 01:14:48;;;;;;;145.65;62.60;;;;;;;;;;5105450;27;20378;-65
2022/03/24 01:17:16;;;;;;;153.80;70.30;;;;;;;;;;5103407;27;20107;-66
2022/03/24 01:19:42;;;;;;;135.18;64.32;;;;;;;;;;5105377;27;20453;-65
2022/03/24 01:22:07;;;;;;;127.75;65.10;;;;;;;;;;5103621;27;20035;-68
2022/03/24 01:24:32;;;;;;;127.03;59.42;;;;;;;;;;5103290;27;20126;-72
2022/03/24 01:26:59;;;;;;;155.15;74.47;;;;;;;;;;5102612;28;20450;-65
2022/03/24 01:29:24;;;;;;;140.98;66.75;;;;;;;;;;5103126;27;23376;-65
2022/03/24 01:31:51;;;;;;;129.70;60.22;;;;;;;;;;5103914;28;20022;-66
2022/03/24 01:34:17;;;;;;;152.57;72.35;;;;;;;;;;5104214;28;20073;-66
2022/03/24 01:36:43;;;;;;;178.73;82.05;;;;;;;;;;5103344;28;20164;-74
2022/03/24 01:39:08;;;;;;;194.18;86.43;;;;;;;;;;5103469;27;20511;-65
2022/03/24 01:41:34;;;;;;;155.00;68.65;;;;;;;;;;5099990;28;20034;-68
2022/03/24 01:44:00;;;;;;;167.82;76.78;;;;;;;;;;5106029;28;20035;-65
2022/03/24 01:46:25;;;;;;;157.63;73.78;;;;;;;;;;5102719;28;20024;-66
2022/03/24 01:48:50;;;;;;;167.52;82.40;;;;;;;;;;5105334;28;20055;-65
2022/03/24 01:51:16;;;;;;;164.80;76.85;;;;;;;;;;5103251;27;20020;-77
2022/03/24 01:53:41;;;;;;;142.60;67.70;;;;;;;;;;5104965;27;20015;-69
2022/03/24 01:56:07;;;;;;;157.13;74.32;;;;;;;;;;5105198;28;20388;-77
2022/03/24 01:58:33;;;;;;;172.98;79.60;;;;;;;;;;5102123;28;20020;-65
2022/03/24 02:01:17;;;;;;;173.82;83.15;;;;;;;;;;5105019;28;20023;-65
2022/03/24 02:03:42;;;;;;;138.35;60.65;;;;;;;;;;5103203;28;20036;-70
2022/03/24 02:06:08;;;;;;;72.40;31.75;;;;;;;;;;5101755;28;20706;-71
2022/03/24 02:08:34;;;;;;;71.70;34.75;;;;;;;;;;5103258;28;20035;-69
2022/03/24 02:11:00;;;;;;;188.98;92.60;;;;;;;;;;5102530;28;20028;-76
2022/03/24 02:13:25;;;;;;;217.73;100.63;;;;;;;;;;5101010;28;20412;-69
2022/03/24 02:15:51;;;;;;;214.50;108.97;;;;;;;;;;5103214;28;20097;-67
2022/03/24 02:18:17;;;;;;;176.80;89.10;;;;;;;;;;5105094;28;20110;-64
2022/03/24 02:20:42;;;;;;;187.15;92.70;;;;;;;;;;5104615;27;20054;-66
2022/03/24 02:23:07;;;;;;;140.43;64.80;;;;;;;;;;5108059;27;21135;-66
2022/03/24 02:25:35;;;;;;;113.28;58.67;;;;;;;;;;5107869;27;20023;-76
2022/03/24 02:28:02;;;;;;;107.28;52.28;;;;;;;;;;5107629;27;20030;-70
2022/03/24 02:30:29;;;;;;;88.10;46.95;;;;;;;;;;5106948;27;20438;-73
2022/03/24 02:32:54;;;;;;;103.20;50.03;;;;;;;;;;5106711;27;20072;-69
2022/03/24 02:35:20;;;;;;;135.88;67.38;;;;;;;;;;5105553;27;20458;-72
2022/03/24 02:37:45;;;;;;;140.77;71.15;;;;;;;;;;5108086;27;20309;-70
2022/03/24 02:40:12;;;;;;;118.70;60.35;;;;;;;;;;5106270;27;20035;-71
2022/03/24 02:42:38;;;;;;;190.00;91.63;;;;;;;;;;5107029;27;20113;-66
2022/03/24 02:45:06;;;;;;;133.48;66.28;;;;;;;;;;5108386;27;20498;-67
2022/03/24 02:47:31;;;;;;;94.35;47.28;;;;;;;;;;5107004;27;20072;-69
2022/03/24 02:49:58;;;;;;;78.15;41.40;;;;;;;;;;5108521;27;20354;-67
2022/03/24 02:52:23;;;;;;;76.82;41.65;;;;;;;;;;5106910;27;20023;-66
2022/03/24 02:54:49;;;;;;;100.05;51.75;;;;;;;;;;5105007;27;20034;-67
2022/03/24 02:57:14;;;;;;;119.72;62.28;;;;;;;;;;5104048;27;20023;-76
2022/03/24 02:59:40;;;;;;;122.47;63.97;;;;;;;;;;5108561;27;20046;-65
2022/03/24 03:02:13;;;;;;;139.40;74.68;;;;;;;;;;5107488;27;20766;-74
2022/03/24 03:04:39;;;;;;;117.68;56.70;;;;;;;;;;5106164;27;20015;-66
2022/03/24 03:07:05;;;;;;;136.45;63.67;;;;;;;;;;5108127;27;20237;-65
2022/03/24 03:09:31;;;;;;;166.80;88.60;;;;;;;;;;5106311;27;20135;-76
2022/03/24 03:11:58;;;;;;;129.35;66.93;;;;;;;;;;5107789;27;20473;-67
2022/03/24 03:14:23;;;;;;;95.53;48.40;;;;;;;;;;5102136;27;20023;-66
2022/03/24 03:16:49;;;;;;;80.28;39.22;;;;;;;;;;5108353;27;20452;-65
2022/03/24 03:19:17;;;;;;;70.63;35.28;;;;;;;;;;5106493;27;20043;-73
2022/03/24 03:21:42;;;;;;;57.30;31.45;;;;;;;;;;5107370;27;20042;-76
2022/03/24 03:24:09;;;;;;;94.20;49.20;;;;;;;;;;5107169;27;20434;-65
2022/03/24 03:26:34;;;;;;;88.07;42.97;;;;;;;;;;5109127;27;20467;-68
2022/03/24 03:29:00;;;;;;;107.50;58.67;;;;;;;;;;5107765;27;20027;-66
2022/03/24 03:31:26;;;;;;;86.28;41.90;;;;;;;;;;5106076;27;20038;-70
2022/03/24 03:33:51;;;;;;;80.47;39.35;;;;;;;;;;5104831;27;20054;-76
2022/03/24 03:36:25;;;;;;;73.10;35.97;;;;;;;;;;5107018;27;20459;-71
2022/03/24 03:38:51;;;;;;;73.40;36.50;;;;;;;;;;5107074;27;20114;-68
2022/03/24 03:41:17;;;;;;;79.50;41.05;;;;;;;;;;5105092;27;20157;-65
2022/03/24 03:43:43;;;;;;;74.93;38.97;;;;;;;;;;5105001;27;20028;-70
2022/03/24 03:46:08;;;;;;;90.13;47.90;;;;;;;;;;5106077;27;20491;-68
2022/03/24 03:48:40;;;;;;;75.80;40.92;;;;;;;;;;5106549;27;20077;-70
2022/03/24 03:51:06;;;;;;;122.97;54.80;;;;;;;;;;5103288;27;20358;-67
2022/03/24 03:53:32;;;;;;;85.47;44.42;;;;;;;;;;5105385;27;20434;-67
2022/03/24 03:55:57;;;;;;;86.53;45.33;;;;;;;;;;5107817;27;20038;-65
2022/03/24 03:58:23;;;;;;;74.15;39.60;;;;;;;;;;5104847;27;20534;-69
2022/03/24 04:00:57;;;;;;;83.28;44.53;;;;;;;;;;5104911;27;20068;-66
2022/03/24 04:03:29;;;;;;;76.70;39.45;;;;;;;;;;5107962;27;20092;-64
2022/03/24 04:05:56;;;;;;;77.25;39.75;;;;;;;;;;5106218;27;20107;-70
2022/03/24 04:08:21;;;;;;;99.22;51.63;;;;;;;;;;5107048;27;20659;-65
2022/03/24 04:10:48;;;;;;;67.88;37.78;;;;;;;;;;5105286;27;20154;-69
2022/03/24 04:13:14;;;;;;;62.97;35.05;;;;;;;;;;5102401;27;20031;-71
2022/03/24 04:15:39;;;;;;;214.13;102.15;;;;;;;;;;5107824;27;20023;-65
2022/03/24 04:18:09;;;;;;;162.57;76.28;;;;;;;;;;5104925;27;20031;-72
2022/03/24 04:20:34;;;;;;;124.80;59.45;;;;;;;;;;5107120;27;20039;-69
2022/03/24 04:23:01;;;;;;;142.15;67.00;;;;;;;;;;5103854;28;20032;-65
2022/03/24 04:25:26;;;;;;;119.78;58.53;;;;;;;;;;5104924;27;20329;-71
2022/03/24 04:27:52;;;;;;;116.00;57.58;;;;;;;;;;5105049;27;20027;-77
2022/03/24 04:30:17;;;;;;;105.32;52.47;;;;;;;;;;5104960;27;20471;-66
2022/03/24 04:32:43;;;;;;;98.25;49.78;;;;;;;;;;5105696;27;21258;-70
2022/03/24 04:35:09;;;;;;;91.03;44.97;;;;;;;;;;5105530;27;20118;-72
2022/03/24 04:37:34;;;;;;;134.50;65.18;;;;;;;;;;5106249;27;20027;-75
2022/03/24 04:40:00;;;;;;;102.03;51.08;;;;;;;;;;5105857;27;20070;-74
2022/03/24 04:42:25;;;;;;;86.00;46.13;;;;;;;;;;5103769;27;20032;-73
2022/03/24 04:44:50;;;;;;;98.57;50.97;;;;;;;;;;5105322;27;20035;-66
2022/03/24 04:47:16;;;;;;;102.95;50.67;;;;;;;;;;5103177;27;20019;-77
2022/03/24 04:49:41;;;;;;;113.18;55.60;;;;;;;;;;5103319;27;20100;-73
2022/03/24 04:52:07;;;;;;;140.77;67.32;;;;;;;;;;5103684;27;20027;-66
2022/03/24 04:54:33;;;;;;;139.98;68.35;;;;;;;;;;5104111;27;20042;-67
2022/03/24 04:56:58;;;;;;;152.35;75.35;;;;;;;;;;5106272;27;20022;-66
2022/03/24 04:59:24;;;;;;;177.20;85.30;;;;;;;;;;5105026;27;20036;-66
2022/03/24 05:01:49;;;;;;;152.55;74.75;;;;;;;;;;5106348;27;20058;-66
2022/03/24 05:04:15;;;;;;;187.35;86.60;;;;;;;;;;5104586;27;20028;-68
2022/03/24 05:06:41;;;;;;;138.82;68.15;;;;;;;;;;5103921;27;20068;-68
2022/03/24 05:09:07;;;;;;;270.00;119.63;;;;;;;;;;5103665;27;20039;-80
2022/03/24 05:11:32;;;;;;;213.15;86.68;;;;;;;;;;5103160;27;20024;-72
2022/03/24 05:13:57;;;;;;;199.52;93.82;;;;;;;;;;5104923;27;20023;-72
2022/03/24 05:16:23;;;;;;;330.35;168.32;;;;;;;;;;5102495;28;20358;-68
2022/03/24 05:18:48;;;;;;;218.63;101.43;;;;;;;;;;5104402;27;20042;-67
2022/03/24 05:21:13;;;;;;;189.02;87.10;;;;;;;;;;5101949;27;20060;-69
2022/03/24 05:23:39;;;;;;;245.65;106.18;;;;;;;;;;5105030;27;20019;-67
2022/03/24 05:26:04;;;;;;;224.45;108.13;;;;;;;;;;5105816;27;20031;-68
2022/03/24 05:28:29;;;;;;;225.70;105.20;;;;;;;;;;5104638;27;20024;-67
2022/03/24 05:30:55;;;;;;;151.15;70.32;;;;;;;;;;5104223;27;20303;-67
2022/03/24 05:33:20;;;;;;;204.98;99.32;;;;;;;;;;5105333;27;20114;-66
2022/03/24 05:35:45;;;;;;;221.65;101.13;;;;;;;;;;5105316;27;20030;-70
2022/03/24 05:38:11;;;;;;;245.90;114.80;;;;;;;;;;5107116;27;20022;-67
2022/03/24 05:40:37;;;;;;;372.50;178.10;;;;;;;;;;5106544;27;21761;-74
2022/03/24 05:43:02;;;;;;;383.20;151.73;;;;;;;;;;5104847;28;20056;-68
2022/03/24 05:45:28;;;;;;;211.57;97.25;;;;;;;;;;5105054;28;20024;-66
2022/03/24 05:47:54;;;;;;;247.32;109.47;;;;;;;;;;5101389;28;20106;-76
2022/03/24 05:50:19;;;;;;;371.05;171.55;;;;;;;;;;5109021;28;20461;-70
2022/03/24 05:52:45;;;;;;;447.85;236.75;;;;;;;;;;5114111;27;20114;-64
2022/03/24 05:55:11;;;;;;;314.65;152.15;;;;;;;;;;5111239;27;20387;-69
2022/03/24 05:57:36;;;;;;;271.15;139.50;;;;;;;;;;5116050;27;20015;-71
2022/03/24 06:00:06;;;;;;;253.15;127.78;;;;;;;;;;5114728;27;20136;-70
2022/03/24 06:02:32;;;;;;;228.50;116.53;;;;;;;;;;5109171;27;20468;-68
2022/03/24 06:04:58;;;;;;;187.32;95.82;;;;;;;;;;5111678;27;20061;-70
2022/03/24 06:07:24;;;;;;;227.93;121.55;;;;;;;;;;5108335;27;20326;-69
2022/03/24 06:09:50;;;;;;;279.88;142.93;;;;;;;;;;5107265;27;20096;-74
2022/03/24 06:12:15;;;;;;;221.52;113.85;;;;;;;;;;5107242;27;20031;-76
2022/03/24 06:14:41;;;;;;;237.18;121.25;;;;;;;;;;5109141;27;20400;-71
2022/03/24 06:17:06;;;;;;;148.85;74.45;;;;;;;;;;5109166;27;20605;-69
2022/03/24 06:19:35;;;;;;;132.15;69.18;;;;;;;;;;5107764;27;20031;-67
2022/03/24 06:22:01;;;;;;;125.35;68.88;;;;;;;;;;5107754;27;20019;-72
2022/03/24 06:24:27;;;;;;;131.77;77.75;;;;;;;;;;5105623;27;20022;-67
2022/03/24 06:26:52;;;;;;;122.22;70.45;;;;;;;;;;5107133;27;20031;-69
2022/03/24 06:29:19;;;;;;;135.50;81.35;;;;;;;;;;5107784;27;20450;-68
2022/03/24 06:31:45;;;;;;;156.98;90.93;;;;;;;;;;5109790;27;20102;-72
2022/03/24 06:34:10;;;;;;;158.82;93.85;;;;;;;;;;5105166;27;20135;-76
2022/03/24 06:36:36;;;;;;;124.20;73.90;;;;;;;;;;5106333;27;20114;-71
2022/03/24 06:39:02;;;;;;;118.43;72.63;;;;;;;;;;5107447;27;20115;-69
2022/03/24 06:41:27;;;;;;;82.82;47.75;;;;;;;;;;5105969;27;20059;-68
2022/03/24 06:43:55;;;;;;;66.70;38.10;;;;;;;;;;5107590;27;20030;-68
2022/03/24 06:46:21;;;;;;;63.17;38.15;;;;;;;;;;5106708;27;20103;-70
2022/03/24 06:48:46;;;;;;;55.72;34.63;;;;;;;;;;5106906;27;20084;-68
2022/03/24 06:51:12;;;;;;;51.78;33.10;;;;;;;;;;5108104;27;20503;-70
2022/03/24 06:53:37;;;;;;;49.88;32.75;;;;;;;;;;5107498;27;20031;-67
2022/03/24 06:56:04;;;;;;;62.75;38.22;;;;;;;;;;5107259;27;20121;-67
2022/03/24 06:58:29;;;;;;;44.30;27.00;;;;;;;;;;5107073;27;20049;-68
2022/03/24 07:00:55;;;;;;;68.90;38.20;;;;;;;;;;5107951;27;20042;-66
2022/03/24 07:03:20;;;;;;;80.13;40.45;;;;;;;;;;5107212;27;20426;-67
2022/03/24 07:05:45;;;;;;;99.07;48.63;;;;;;;;;;5106615;27;20038;-67
2022/03/24 07:08:11;;;;;;;46.20;26.67;;;;;;;;;;5108242;27;20457;-74
2022/03/24 07:10:36;;;;;;;54.47;26.08;;;;;;;;;;5108207;27;20066;-69
2022/03/24 07:13:02;;;;;;;29.05;16.60;;;;;;;;;;5106806;27;20035;-68
2022/03/24 07:15:28;;;;;;;30.88;17.15;;;;;;;;;;5103969;27;20721;-71
2022/03/24 07:17:53;;;;;;;47.60;22.67;;;;;;;;;;5109678;27;20020;-71
2022/03/24 07:20:23;;;;;;;33.85;21.23;;;;;;;;;;5112707;27;20043;-72
2022/03/24 07:22:48;;;;;;;50.92;30.25;;;;;;;;;;5107054;27;20027;-69
2022/03/24 07:25:14;;;;;;;63.90;33.40;;;;;;;;;;5108142;27;20038;-70
2022/03/24 07:27:42;;;;;;;47.33;27.70;;;;;;;;;;5107269;27;20309;-69
2022/03/24 07:30:07;;;;;;;37.22;22.67;;;;;;;;;;5106438;27;20032;-73
2022/03/24 07:32:34;;;;;;;34.42;22.05;;;;;;;;;;5107471;27;20030;-69
2022/03/24 07:34:59;;;;;;;102.43;52.58;;;;;;;;;;5106642;27;20023;-72
2022/03/24 07:37:25;;;;;;;47.05;24.55;;;;;;;;;;5107581;27;20041;-73
2022/03/24 07:39:51;;;;;;;60.08;33.55;;;;;;;;;;5106058;27;20031;-70
2022/03/24 07:42:16;;;;;;;56.10;30.40;;;;;;;;;;5106146;27;20026;-70
2022/03/24 07:44:41;;;;;;;62.75;35.05;;;;;;;;;;5107759;27;20027;-72
2022/03/24 07:47:07;;;;;;;40.58;23.35;;;;;;;;;;5107863;27;20027;-73
2022/03/24 07:49:34;;;;;;;43.88;22.77;;;;;;;;;;5106102;27;20054;-73
2022/03/24 07:52:07;;;;;;;59.40;30.75;;;;;;;;;;5107784;27;20027;-71
2022/03/24 07:54:44;;;;;;;56.20;24.25;;;;;;;;;;5106677;27;20067;-72
2022/03/24 07:57:09;;;;;;;45.10;22.42;;;;;;;;;;5106625;27;20020;-72
2022/03/24 07:59:35;;;;;;;32.10;16.42;;;;;;;;;;5107251;27;20043;-70
2022/03/24 08:02:00;;;;;;;24.38;14.82;;;;;;;;;;5110511;27;20030;-70
2022/03/24 08:04:26;;;;;;;31.15;16.45;;;;;;;;;;5106451;27;20031;-71
2022/03/24 08:06:51;;;;;;;29.83;17.63;;;;;;;;;;5106443;27;20118;-71
2022/03/24 08:09:18;;;;;;;32.60;18.58;;;;;;;;;;5106155;27;20023;-72
2022/03/24 08:11:43;;;;;;;35.30;17.25;;;;;;;;;;5108336;27;20030;-74
2022/03/24 08:14:09;;;;;;;24.25;13.00;;;;;;;;;;5106406;27;20039;-73
2022/03/24 08:16:34;;;;;;;32.22;17.38;;;;;;;;;;5106517;27;20023;-72
2022/03/24 08:19:00;;;;;;;40.53;18.67;;;;;;;;;;5106142;27;20381;-72
2022/03/24 08:21:26;;;;;;;27.65;17.08;;;;;;;;;;5107372;27;20438;-72
2022/03/24 08:23:52;;;;;;;23.02;13.63;;;;;;;;;;5105178;27;20034;-73
2022/03/24 08:26:17;;;;;;;20.42;13.32;;;;;;;;;;5107503;27;20664;-73
2022/03/24 08:28:42;;;;;;;19.20;11.85;;;;;;;;;;5106058;27;20472;-73
2022/03/24 08:31:08;;;;;;;22.58;11.27;;;;;;;;;;5106419;27;20023;-75
2022/03/24 08:33:33;;;;;;;18.92;10.70;;;;;;;;;;5103624;27;20669;-73
2022/03/24 08:35:59;;;;;;;22.00;13.13;;;;;;;;;;5107320;27;20027;-71
2022/03/24 08:38:25;;;;;;;25.23;13.05;;;;;;;;;;5105662;27;20508;-70
2022/03/24 08:40:51;;;;;;;26.05;12.77;;;;;;;;;;5105485;27;20087;-70
2022/03/24 08:43:16;;;;;;;21.30;12.52;;;;;;;;;;5106813;27;20441;-70
2022/03/24 08:45:41;;;;;;;23.83;12.63;;;;;;;;;;5105172;27;20030;-72
2022/03/24 08:48:07;;;;;;;23.98;14.93;;;;;;;;;;5103438;27;20438;-71
2022/03/24 08:50:35;;;;;;;18.67;11.70;;;;;;;;;;5105973;27;20051;-71
2022/03/24 08:53:03;;;;;;;19.25;12.15;;;;;;;;;;5105487;27;20430;-71
2022/03/24 08:55:28;;;;;;;22.80;11.88;;;;;;;;;;5105457;27;20023;-71
2022/03/24 08:57:53;;;;;;;25.08;14.70;;;;;;;;;;5104368;27;20371;-72
2022/03/24 09:00:19;;;;;;;22.65;13.15;;;;;;;;;;5103721;27;20365;-72
2022/03/24 09:02:46;;;;;;;17.95;11.85;;;;;;;;;;5104926;27;20027;-71
2022/03/24 09:05:12;;;;;;;23.92;14.20;;;;;;;;;;5113076;27;20032;-72
2022/03/24 09:07:37;;;;;;;25.15;15.50;;;;;;;;;;5112894;27;20092;-71
2022/03/24 09:10:05;;;;;;;28.00;14.23;;;;;;;;;;5114430;27;20041;-70
2022/03/24 09:12:30;;;;;;;17.90;11.82;;;;;;;;;;5112671;27;20458;-71
2022/03/24 09:14:56;;;;;;;26.42;13.05;;;;;;;;;;5114362;27;20101;-71
2022/03/24 09:17:21;;;;;;;18.15;10.70;;;;;;;;;;5112565;27;20022;-72
2022/03/24 09:19:46;;;;;;;20.63;12.27;;;;;;;;;;5108704;27;20434;-70
2022/03/24 09:22:12;;;;;;;16.02;10.45;;;;;;;;;;5104174;27;20106;-72
2022/03/24 09:24:37;;;;;;;29.10;17.02;;;;;;;;;;5100777;27;20011;-72
2022/03/24 09:27:05;;;;;;;24.67;14.38;;;;;;;;;;5101485;27;20024;-71
2022/03/24 09:29:31;;;;;;;23.15;14.90;;;;;;;;;;5102098;27;20952;-71
2022/03/24 09:31:56;;;;;;;20.15;12.40;;;;;;;;;;5102557;27;20035;-72
2022/03/24 09:34:22;;;;;;;19.25;11.32;;;;;;;;;;5102356;27;20023;-73
2022/03/24 09:36:47;;;;;;;16.45;11.45;;;;;;;;;;5105865;27;20696;-74
2022/03/24 09:39:14;;;;;;;20.83;13.48;;;;;;;;;;5109263;27;20047;-71
2022/03/24 09:41:40;;;;;;;20.73;12.73;;;;;;;;;;5104418;27;20423;-71
2022/03/24 09:44:07;;;;;;;27.25;14.20;;;;;;;;;;5102494;27;20043;-71
2022/03/24 09:46:33;;;;;;;17.05;11.32;;;;;;;;;;5105839;27;20031;-72
2022/03/24 09:48:59;;;;;;;15.60;11.98;;;;;;;;;;5100276;27;20096;-74
2022/03/24 09:51:26;;;;;;;20.20;14.07;;;;;;;;;;5100908;27;20116;-70
2022/03/24 09:53:52;;;;;;;16.45;10.63;;;;;;;;;;5100740;28;20027;-72
2022/03/24 09:56:17;;;;;;;12.55;9.07;;;;;;;;;;5101844;28;20027;-71
2022/03/24 09:58:44;;;;;;;20.73;10.73;;;;;;;;;;5101658;27;20104;-69
2022/03/24 10:01:10;;;;;;;16.05;10.45;;;;;;;;;;5101358;28;20042;-71
2022/03/24 10:03:35;;;;;;;16.05;9.88;;;;;;;;;;5104372;27;20315;-73
2022/03/24 10:06:04;;;;;;;17.17;8.38;;;;;;;;;;5102476;28;20058;-71
2022/03/24 10:08:31;;;;;;;14.02;8.80;;;;;;;;;;5100936;27;20161;-71
2022/03/24 10:10:58;;;;;;;17.10;11.48;;;;;;;;;;5100316;27;20031;-72
2022/03/24 10:13:24;;;;;;;15.13;9.68;;;;;;;;;;5106324;27;20350;-71
2022/03/24 10:15:52;;;;;;;14.73;9.20;;;;;;;;;;5104501;27;20023;-71
2022/03/24 10:18:18;;;;;;;16.83;9.85;;;;;;;;;;5100491;28;20027;-72
2022/03/24 10:20:43;;;;;;;16.45;9.70;;;;;;;;;;5104675;27;20347;-72
2022/03/24 10:23:12;;;;;;;19.02;11.32;;;;;;;;;;5106752;27;20027;-73
2022/03/24 10:25:38;;;;;;;;;;;;;;;;;;5115745;27;20081;-72
2022/03/24 10:28:03;;;;;;;18.50;10.10;;;;;;;;;;5108213;28;19916;-72
2022/03/24 10:30:44;;;;;;;16.70;10.32;;;;;;;;;;5099887;28;20030;-72
2022/03/24 10:33:09;;;;;;;14.70;9.85;;;;;;;;;;5099352;28;20034;-75
2022/03/24 10:35:35;;;;;;;21.80;12.98;;;;;;;;;;5102013;27;20040;-73
2022/03/24 10:38:00;;;;;;;30.38;16.25;;;;;;;;;;5101383;27;20028;-74
2022/03/24 10:40:27;;;;;;;17.13;10.10;;;;;;;;;;5100488;28;20119;-76
2022/03/24 10:42:55;;;;;;;22.55;13.73;;;;;;;;;;5102860;27;20109;-73
2022/03/24 10:45:24;;;;;;;17.77;12.10;;;;;;;;;;5104194;27;20024;-74
2022/03/24 10:47:51;;;;;;;17.27;11.20;;;;;;;;;;5105052;27;20027;-74
2022/03/24 10:50:39;;;;;;;17.70;9.68;;;;;;;;;;5104891;27;20299;-76
2022/03/24 10:53:07;;;;;;;17.60;11.75;;;;;;;;;;5104723;27;20035;-75
2022/03/24 10:55:44;;;;;;;13.60;9.48;;;;;;;;;;5104895;27;20042;-74
2022/03/24 10:58:22;;;;;;;14.68;9.35;;;;;;;;;;5104067;27;20091;-74
2022/03/24 11:00:50;;;;;;;18.30;10.60;;;;;;;;;;5100809;27;20026;-74
2022/03/24 11:03:16;;;;;;;14.55;10.05;;;;;;;;;;5106801;27;20357;-72
2022/03/24 11:05:42;;;;;;;26.80;11.38;;;;;;;;;;5105347;27;20027;-75
2022/03/24 11:08:08;;;;;;;15.63;10.38;;;;;;;;;;5104369;27;20027;-73
2022/03/24 11:10:42;;;;;;;12.90;8.70;;;;;;;;;;5103077;27;20023;-73
2022/03/24 11:13:08;;;;;;;12.77;9.32;;;;;;;;;;5101355;27;20020;-77
2022/03/24 11:15:37;;;;;;;12.07;8.88;;;;;;;;;;5103296;27;20434;-77
2022/03/24 11:18:03;;;;;;;17.10;9.35;;;;;;;;;;5105965;27;20076;-72
2022/03/24 11:20:34;;;;;;;13.98;8.77;;;;;;;;;;5111240;27;20042;-71
2022/03/24 11:23:19;;;;;;;14.73;8.70;;;;;;;;;;5113265;27;20031;-71
2022/03/24 11:25:44;;;;;;;12.68;8.93;;;;;;;;;;5108724;27;20026;-73
2022/03/24 11:28:11;;;;;;;15.95;7.93;;;;;;;;;;5103822;27;20110;-71
2022/03/24 11:30:37;;;;;;;13.35;8.00;;;;;;;;;;5111150;27;20027;-75
2022/03/24 11:33:03;;;;;;;16.30;9.25;;;;;;;;;;5108645;27;20892;-72
2022/03/24 11:35:28;;;;;;;10.75;7.60;;;;;;;;;;5104441;27;20028;-71
2022/03/24 11:37:54;;;;;;;16.30;8.20;;;;;;;;;;5103654;27;20027;-72
2022/03/24 11:40:30;;;;;;;12.65;8.50;;;;;;;;;;5103690;27;20031;-72
2022/03/24 11:42:59;;;;;;;18.02;12.07;;;;;;;;;;5104706;27;20035;-71
2022/03/24 11:45:29;;;;;;;16.10;9.02;;;;;;;;;;5105297;27;20019;-71
2022/03/24 11:47:56;;;;;;;12.98;7.95;;;;;;;;;;5104261;27;20037;-70
2022/03/24 11:50:41;;;;;;;16.02;8.13;;;;;;;;;;5105455;27;20043;-71
2022/03/24 11:53:25;;;;;;;14.40;8.75;;;;;;;;;;5108959;27;20157;-71
2022/03/24 11:55:59;;;;;;;37.97;20.92;;;;;;;;;;5104080;27;20042;-73
2022/03/24 11:58:29;;;;;;;13.13;9.27;;;;;;;;;;5113038;27;20028;-73
2022/03/24 12:00:54;;;;;;;15.52;8.63;;;;;;;;;;5110084;27;20038;-73
2022/03/24 12:03:40;;;;;;;13.32;8.57;;;;;;;;;;5096210;27;20023;-73
2022/03/24 12:06:05;;;;;;;9.55;7.80;;;;;;;;;;5108713;27;20718;-72
2022/03/24 12:08:42;;;;;;;15.65;9.18;;;;;;;;;;5115238;27;20022;-72
2022/03/24 12:11:26;;;;;;;14.23;9.00;;;;;;;;;;5113149;27;20095;-75
2022/03/24 12:13:54;;;;;;;18.73;8.43;;;;;;;;;;5103990;27;20024;-74
2022/03/24 12:16:22;;;;;;;11.65;8.45;;;;;;;;;;5102105;27;20031;-73
2022/03/24 12:18:48;;;;;;;14.88;7.68;;;;;;;;;;5104115;27;20653;-73
2022/03/24 12:21:21;;;;;;;9.75;7.70;;;;;;;;;;5103589;27;20035;-73
2022/03/24 12:24:01;;;;;;;11.02;7.82;;;;;;;;;;5105267;27;20023;-73
2022/03/24 12:26:28;;;;;;;19.38;9.90;;;;;;;;;;5106434;27;20430;-73
2022/03/24 12:29:11;;;;;;;14.52;9.45;;;;;;;;;;5107217;27;20058;-72
2022/03/24 12:31:56;;;;;;;16.10;8.60;;;;;;;;;;5106035;27;20027;-74
2022/03/24 12:34:21;;;;;;;15.05;9.52;;;;;;;;;;5107153;27;20027;-73
2022/03/24 12:36:47;;;;;;;16.88;9.18;;;;;;;;;;5106176;27;20397;-73
2022/03/24 12:39:28;;;;;;;17.13;8.88;;;;;;;;;;5106605;27;20035;-74
2022/03/24 12:42:11;;;;;;;12.70;8.77;;;;;;;;;;5106534;27;20129;-75
2022/03/24 12:44:55;;;;;;;12.93;8.88;;;;;;;;;;5106228;27;20031;-72
2022/03/24 12:47:42;;;;;;;12.43;9.27;;;;;;;;;;5105381;27;20031;-74
2022/03/24 12:50:28;;;;;;;13.25;8.43;;;;;;;;;;5105974;27;20059;-72
2022/03/24 12:52:54;;;;;;;15.63;10.07;;;;;;;;;;5095000;27;20092;-73
2022/03/24 12:55:35;;;;;;;13.50;8.02;;;;;;;;;;5106217;27;20062;-76
2022/03/24 12:58:21;;;;;;;13.77;8.73;;;;;;;;;;5106768;27;20058;-72
2022/03/24 13:00:48;;;;;;;18.98;11.75;;;;;;;;;;5104159;27;20121;-73
2022/03/24 13:03:13;;;;;;;27.92;9.63;;;;;;;;;;5104082;27;20441;-72
2022/03/24 13:05:40;;;;;;;13.25;7.60;;;;;;;;;;5107280;27;20023;-71
2022/03/24 13:08:07;;;;;;;13.15;9.02;;;;;;;;;;5109340;27;20023;-71
2022/03/24 13:10:33;;;;;;;12.80;8.45;;;;;;;;;;5112094;27;20031;-72
2022/03/24 13:13:00;;;;;;;11.30;8.27;;;;;;;;;;5115724;27;20135;-71
2022/03/24 13:15:25;;;;;;;12.90;8.90;;;;;;;;;;5112815;27;20070;-69
2022/03/24 13:17:53;;;;;;;13.40;8.13;;;;;;;;;;5110905;27;20050;-73
2022/03/24 13:20:19;;;;;;;13.43;8.70;;;;;;;;;;5106040;27;21190;-71
2022/03/24 13:22:47;;;;;;;16.20;8.60;;;;;;;;;;5111328;27;20042;-74
2022/03/24 13:25:14;;;;;;;14.65;9.43;;;;;;;;;;5113951;27;20908;-72
2022/03/24 13:27:51;;;;;;;17.45;9.18;;;;;;;;;;5105034;27;20030;-72
2022/03/24 13:30:18;;;;;;;19.77;9.48;;;;;;;;;;5108178;27;23503;-70
2022/03/24 13:32:44;;;;;;;18.10;10.45;;;;;;;;;;5102244;27;20032;-72
2022/03/24 13:35:15;;;;;;;12.45;9.68;;;;;;;;;;5105805;27;20023;-70
2022/03/24 13:37:44;;;;;;;16.90;10.75;;;;;;;;;;5103817;27;20109;-73
2022/03/24 13:40:14;;;;;;;19.80;11.57;;;;;;;;;;5105623;27;20107;-69
2022/03/24 13:42:41;;;;;;;15.32;7.50;;;;;;;;;;5106789;27;20326;-70
2022/03/24 13:45:07;;;;;;;11.57;7.10;;;;;;;;;;5110814;27;20057;-71
2022/03/24 13:47:33;;;;;;;13.63;8.38;;;;;;;;;;5108038;27;20035;-71
2022/03/24 13:50:05;;;;;;;10.30;7.68;;;;;;;;;;5107581;27;20051;-71
2022/03/24 13:52:35;;;;;;;12.68;7.63;;;;;;;;;;5108442;28;20084;-70
2022/03/24 13:55:01;;;;;;;13.20;7.88;;;;;;;;;;5104144;28;20349;-72
2022/03/24 13:57:26;;;;;;;15.82;8.35;;;;;;;;;;5103333;28;20109;-70
2022/03/24 13:59:52;;;;;;;18.52;11.18;;;;;;;;;;5105169;27;20114;-69
2022/03/24 14:02:22;;;;;;;11.93;8.07;;;;;;;;;;5104701;27;20034;-70
2022/03/24 14:05:00;;;;;;;18.67;9.60;;;;;;;;;;5101900;27;20125;-70
2022/03/24 14:07:26;;;;;;;17.10;9.73;;;;;;;;;;5104277;28;20027;-69
2022/03/24 14:09:54;;;;;;;16.02;8.70;;;;;;;;;;5103806;28;20436;-74
2022/03/24 14:12:20;;;;;;;14.10;8.93;;;;;;;;;;5102913;28;20407;-70
2022/03/24 14:14:48;;;;;;;13.73;9.15;;;;;;;;;;5104603;28;20058;-71